sensor_id;sensor_type;location;lat;lon;timestamp;pressure;altitude;pressure_sealevel;temperature
55038;BMP280;40937;53.594;10.034;2023-11-21T00:00:39;101095.50;;;9.42
55038;BMP280;40937;53.594;10.034;2023-11-21T00:03:09;101095.97;;;9.39
55038;BMP280;40937;53.594;10.034;2023-11-21T00:05:37;101092.72;;;9.37
55038;BMP280;40937;53.594;10.034;2023-11-21T00:08:06;101093.13;;;9.33
55038;BMP280;40937;53.594;10.034;2023-11-21T00:10:33;101100.88;;;9.28
55038;BMP280;40937;53.594;10.034;2023-11-21T00:13:00;101100.09;;;9.28
55038;BMP280;40937;53.594;10.034;2023-11-21T00:15:28;101114.31;;;9.20
55038;BMP280;40937;53.594;10.034;2023-11-21T00:17:55;101111.88;;;9.19
55038;BMP280;40937;53.594;10.034;2023-11-21T00:20:23;101107.41;;;9.19
55038;BMP280;40937;53.594;10.034;2023-11-21T00:22:50;101112.72;;;9.12
55038;BMP280;40937;53.594;10.034;2023-11-21T00:25:18;101123.69;;;9.03
55038;BMP280;40937;53.594;10.034;2023-11-21T00:27:45;101122.91;;;8.95
55038;BMP280;40937;53.594;10.034;2023-11-21T00:30:13;101139.34;;;8.91
55038;BMP280;40937;53.594;10.034;2023-11-21T00:32:41;101139.72;;;8.94
55038;BMP280;40937;53.594;10.034;2023-11-21T00:35:09;101141.97;;;8.91
55038;BMP280;40937;53.594;10.034;2023-11-21T00:37:36;101141.53;;;8.94
55038;BMP280;40937;53.594;10.034;2023-11-21T00:40:07;101151.25;;;8.93
55038;BMP280;40937;53.594;10.034;2023-11-21T00:42:37;101154.16;;;8.79
55038;BMP280;40937;53.594;10.034;2023-11-21T00:45:06;101148.09;;;8.78
55038;BMP280;40937;53.594;10.034;2023-11-21T00:47:33;101153.41;;;8.58
55038;BMP280;40937;53.594;10.034;2023-11-21T00:50:00;101160.09;;;8.47
55038;BMP280;40937;53.594;10.034;2023-11-21T00:52:27;101169.63;;;8.35
55038;BMP280;40937;53.594;10.034;2023-11-21T00:54:55;101173.50;;;8.39
55038;BMP280;40937;53.594;10.034;2023-11-21T00:57:22;101180.94;;;8.42
55038;BMP280;40937;53.594;10.034;2023-11-21T00:59:54;101182.34;;;8.45
55038;BMP280;40937;53.594;10.034;2023-11-21T01:02:26;101180.34;;;8.40
55038;BMP280;40937;53.594;10.034;2023-11-21T01:04:53;101188.66;;;8.30
55038;BMP280;40937;53.594;10.034;2023-11-21T01:07:23;101199.16;;;8.37
55038;BMP280;40937;53.594;10.034;2023-11-21T01:09:50;101200.38;;;8.41
55038;BMP280;40937;53.594;10.034;2023-11-21T01:12:18;101212.72;;;8.27
55038;BMP280;40937;53.594;10.034;2023-11-21T01:14:45;101202.41;;;8.26
55038;BMP280;40937;53.594;10.034;2023-11-21T01:17:13;101213.72;;;8.19
55038;BMP280;40937;53.594;10.034;2023-11-21T01:19:41;101217.34;;;8.32
55038;BMP280;40937;53.594;10.034;2023-11-21T01:22:08;101224.22;;;8.26
55038;BMP280;40937;53.594;10.034;2023-11-21T01:24:35;101225.41;;;8.10
55038;BMP280;40937;53.594;10.034;2023-11-21T01:27:02;101229.28;;;8.08
55038;BMP280;40937;53.594;10.034;2023-11-21T01:29:30;101232.69;;;8.02
55038;BMP280;40937;53.594;10.034;2023-11-21T01:31:57;101236.34;;;8.07
55038;BMP280;40937;53.594;10.034;2023-11-21T01:34:26;101238.34;;;7.92
55038;BMP280;40937;53.594;10.034;2023-11-21T01:36:54;101238.13;;;7.80
55038;BMP280;40937;53.594;10.034;2023-11-21T01:39:25;101246.00;;;7.80
55038;BMP280;40937;53.594;10.034;2023-11-21T01:41:53;101242.34;;;7.81
55038;BMP280;40937;53.594;10.034;2023-11-21T01:44:20;101251.00;;;7.68
55038;BMP280;40937;53.594;10.034;2023-11-21T01:46:47;101244.38;;;7.72
55038;BMP280;40937;53.594;10.034;2023-11-21T01:49:15;101248.44;;;7.82
55038;BMP280;40937;53.594;10.034;2023-11-21T01:51:48;101249.66;;;7.86
55038;BMP280;40937;53.594;10.034;2023-11-21T01:54:19;101244.78;;;7.83
55038;BMP280;40937;53.594;10.034;2023-11-21T01:56:47;101256.94;;;7.84
55038;BMP280;40937;53.594;10.034;2023-11-21T01:59:21;101256.50;;;7.73
55038;BMP280;40937;53.594;10.034;2023-11-21T02:01:49;101256.31;;;7.82
55038;BMP280;40937;53.594;10.034;2023-11-21T02:04:22;101263.38;;;7.74
55038;BMP280;40937;53.594;10.034;2023-11-21T02:06:50;101263.75;;;7.71
55038;BMP280;40937;53.594;10.034;2023-11-21T02:09:24;101270.25;;;7.75
55038;BMP280;40937;53.594;10.034;2023-11-21T02:11:53;101274.25;;;7.78
55038;BMP280;40937;53.594;10.034;2023-11-21T02:14:23;101271.44;;;7.73
55038;BMP280;40937;53.594;10.034;2023-11-21T02:16:54;101275.88;;;7.79
55038;BMP280;40937;53.594;10.034;2023-11-21T02:19:23;101275.50;;;7.75
55038;BMP280;40937;53.594;10.034;2023-11-21T02:21:57;101277.88;;;7.70
55038;BMP280;40937;53.594;10.034;2023-11-21T02:24:28;101272.22;;;7.67
55038;BMP280;40937;53.594;10.034;2023-11-21T02:26:57;101294.03;;;7.67
55038;BMP280;40937;53.594;10.034;2023-11-21T02:29:25;101297.09;;;7.71
55038;BMP280;40937;53.594;10.034;2023-11-21T02:31:54;101303.72;;;7.67
55038;BMP280;40937;53.594;10.034;2023-11-21T02:34:22;101301.50;;;7.70
55038;BMP280;40937;53.594;10.034;2023-11-21T02:36:50;101307.41;;;7.72
55038;BMP280;40937;53.594;10.034;2023-11-21T02:39:18;101312.84;;;7.77
55038;BMP280;40937;53.594;10.034;2023-11-21T02:41:53;101313.88;;;7.76
55038;BMP280;40937;53.594;10.034;2023-11-21T02:44:20;101302.53;;;7.69
55038;BMP280;40937;53.594;10.034;2023-11-21T02:46:48;101321.97;;;7.82
55038;BMP280;40937;53.594;10.034;2023-11-21T02:49:18;101311.84;;;7.78
55038;BMP280;40937;53.594;10.034;2023-11-21T02:51:45;101317.53;;;7.75
55038;BMP280;40937;53.594;10.034;2023-11-21T02:54:12;101316.66;;;7.68
55038;BMP280;40937;53.594;10.034;2023-11-21T02:56:40;101323.53;;;7.69
55038;BMP280;40937;53.594;10.034;2023-11-21T02:59:08;101332.66;;;7.73
55038;BMP280;40937;53.594;10.034;2023-11-21T03:01:37;101326.59;;;7.79
55038;BMP280;40937;53.594;10.034;2023-11-21T03:04:05;101327.22;;;7.82
55038;BMP280;40937;53.594;10.034;2023-11-21T03:06:33;101333.28;;;7.82
55038;BMP280;40937;53.594;10.034;2023-11-21T03:09:00;101332.88;;;7.78
55038;BMP280;40937;53.594;10.034;2023-11-21T03:11:28;101334.09;;;7.76
55038;BMP280;40937;53.594;10.034;2023-11-21T03:13:55;101332.41;;;7.61
55038;BMP280;40937;53.594;10.034;2023-11-21T03:16:24;101335.22;;;7.67
55038;BMP280;40937;53.594;10.034;2023-11-21T03:18:52;101334.66;;;7.71
55038;BMP280;40937;53.594;10.034;2023-11-21T03:21:19;101344.09;;;7.66
55038;BMP280;40937;53.594;10.034;2023-11-21T03:23:46;101347.13;;;7.63
55038;BMP280;40937;53.594;10.034;2023-11-21T03:26:13;101353.84;;;7.72
55038;BMP280;40937;53.594;10.034;2023-11-21T03:28:40;101353.41;;;7.68
55038;BMP280;40937;53.594;10.034;2023-11-21T03:31:08;101358.28;;;7.71
55038;BMP280;40937;53.594;10.034;2023-11-21T03:33:37;101364.38;;;7.78
55038;BMP280;40937;53.594;10.034;2023-11-21T03:36:04;101365.19;;;7.72
55038;BMP280;40937;53.594;10.034;2023-11-21T03:38:33;101369.41;;;7.73
55038;BMP280;40937;53.594;10.034;2023-11-21T03:41:00;101371.25;;;7.73
55038;BMP280;40937;53.594;10.034;2023-11-21T03:43:28;101375.22;;;7.62
55038;BMP280;40937;53.594;10.034;2023-11-21T03:45:55;101376.84;;;7.63
55038;BMP280;40937;53.594;10.034;2023-11-21T03:48:22;101380.94;;;7.72
55038;BMP280;40937;53.594;10.034;2023-11-21T03:50:51;101380.34;;;7.77
55038;BMP280;40937;53.594;10.034;2023-11-21T03:53:18;101391.06;;;7.75
55038;BMP280;40937;53.594;10.034;2023-11-21T03:55:45;101395.34;;;7.83
55038;BMP280;40937;53.594;10.034;2023-11-21T03:58:13;101405.19;;;7.81
55038;BMP280;40937;53.594;10.034;2023-11-21T04:00:40;101417.16;;;7.84
55038;BMP280;40937;53.594;10.034;2023-11-21T04:03:07;101416.97;;;7.85
55038;BMP280;40937;53.594;10.034;2023-11-21T04:05:34;101416.16;;;7.85
55038;BMP280;40937;53.594;10.034;2023-11-21T04:08:03;101421.78;;;7.82
55038;BMP280;40937;53.594;10.034;2023-11-21T04:10:30;101424.66;;;7.87
55038;BMP280;40937;53.594;10.034;2023-11-21T04:12:57;101423.22;;;7.84
55038;BMP280;40937;53.594;10.034;2023-11-21T04:15:25;101424.59;;;7.80
55038;BMP280;40937;53.594;10.034;2023-11-21T04:17:52;101434.28;;;7.79
55038;BMP280;40937;53.594;10.034;2023-11-21T04:20:19;101430.06;;;7.78
55038;BMP280;40937;53.594;10.034;2023-11-21T04:22:48;101430.25;;;7.77
55038;BMP280;40937;53.594;10.034;2023-11-21T04:25:17;101435.06;;;7.73
55038;BMP280;40937;53.594;10.034;2023-11-21T04:27:45;101441.16;;;7.80
55038;BMP280;40937;53.594;10.034;2023-11-21T04:30:13;101442.94;;;7.73
55038;BMP280;40937;53.594;10.034;2023-11-21T04:32:40;101454.84;;;7.69
55038;BMP280;40937;53.594;10.034;2023-11-21T04:35:08;101458.09;;;7.71
55038;BMP280;40937;53.594;10.034;2023-11-21T04:37:35;101452.41;;;7.68
55038;BMP280;40937;53.594;10.034;2023-11-21T04:40:03;101458.84;;;7.65
55038;BMP280;40937;53.594;10.034;2023-11-21T04:42:35;101457.28;;;7.71
55038;BMP280;40937;53.594;10.034;2023-11-21T04:45:03;101457.72;;;7.74
55038;BMP280;40937;53.594;10.034;2023-11-21T04:47:34;101455.47;;;7.71
55038;BMP280;40937;53.594;10.034;2023-11-21T04:50:01;101459.47;;;7.67
55038;BMP280;40937;53.594;10.034;2023-11-21T04:52:29;101468.97;;;7.68
55038;BMP280;40937;53.594;10.034;2023-11-21T04:54:56;101465.34;;;7.69
55038;BMP280;40937;53.594;10.034;2023-11-21T04:57:24;101474.41;;;7.67
55038;BMP280;40937;53.594;10.034;2023-11-21T04:59:53;101481.44;;;7.59
55038;BMP280;40937;53.594;10.034;2023-11-21T05:02:20;101488.88;;;7.56
55038;BMP280;40937;53.594;10.034;2023-11-21T05:04:47;101482.63;;;7.57
55038;BMP280;40937;53.594;10.034;2023-11-21T05:07:15;101487.88;;;7.57
55038;BMP280;40937;53.594;10.034;2023-11-21T05:09:42;101491.13;;;7.59
55038;BMP280;40937;53.594;10.034;2023-11-21T05:12:12;101497.66;;;7.63
55038;BMP280;40937;53.594;10.034;2023-11-21T05:14:40;101504.94;;;7.68
55038;BMP280;40937;53.594;10.034;2023-11-21T05:17:09;101495.22;;;7.68
55038;BMP280;40937;53.594;10.034;2023-11-21T05:19:36;101506.53;;;7.69
55038;BMP280;40937;53.594;10.034;2023-11-21T05:22:04;101505.38;;;7.71
55038;BMP280;40937;53.594;10.034;2023-11-21T05:24:31;101513.84;;;7.73
55038;BMP280;40937;53.594;10.034;2023-11-21T05:26:58;101511.41;;;7.72
55038;BMP280;40937;53.594;10.034;2023-11-21T05:29:26;101511.59;;;7.70
55038;BMP280;40937;53.594;10.034;2023-11-21T05:31:53;101513.25;;;7.71
55038;BMP280;40937;53.594;10.034;2023-11-21T05:34:21;101518.25;;;7.66
55038;BMP280;40937;53.594;10.034;2023-11-21T05:36:50;101524.38;;;7.73
55038;BMP280;40937;53.594;10.034;2023-11-21T05:39:17;101522.75;;;7.72
55038;BMP280;40937;53.594;10.034;2023-11-21T05:41:45;101526.75;;;7.68
55038;BMP280;40937;53.594;10.034;2023-11-21T05:44:12;101533.38;;;7.64
55038;BMP280;40937;53.594;10.034;2023-11-21T05:46:41;101530.75;;;7.64
55038;BMP280;40937;53.594;10.034;2023-11-21T05:49:09;101544.50;;;7.66
55038;BMP280;40937;53.594;10.034;2023-11-21T05:51:37;101534.41;;;7.63
55038;BMP280;40937;53.594;10.034;2023-11-21T05:54:05;101553.38;;;7.65
55038;BMP280;40937;53.594;10.034;2023-11-21T05:56:32;101555.41;;;7.63
55038;BMP280;40937;53.594;10.034;2023-11-21T05:58:59;101566.72;;;7.64
55038;BMP280;40937;53.594;10.034;2023-11-21T06:01:27;101566.31;;;7.67
55038;BMP280;40937;53.594;10.034;2023-11-21T06:03:54;101580.44;;;7.66
55038;BMP280;40937;53.594;10.034;2023-11-21T06:06:22;101575.66;;;7.69
55038;BMP280;40937;53.594;10.034;2023-11-21T06:08:51;101577.25;;;7.70
55038;BMP280;40937;53.594;10.034;2023-11-21T06:11:19;101580.53;;;7.72
55038;BMP280;40937;53.594;10.034;2023-11-21T06:13:46;101582.16;;;7.73
55038;BMP280;40937;53.594;10.034;2023-11-21T06:16:14;101596.91;;;7.74
55038;BMP280;40937;53.594;10.034;2023-11-21T06:18:43;101608.78;;;7.70
55038;BMP280;40937;53.594;10.034;2023-11-21T06:21:10;101614.00;;;7.64
55038;BMP280;40937;53.594;10.034;2023-11-21T06:23:38;101612.44;;;7.69
55038;BMP280;40937;53.594;10.034;2023-11-21T06:26:06;101613.66;;;7.73
55038;BMP280;40937;53.594;10.034;2023-11-21T06:28:35;101615.22;;;7.68
55038;BMP280;40937;53.594;10.034;2023-11-21T06:31:02;101616.47;;;7.72
55038;BMP280;40937;53.594;10.034;2023-11-21T06:33:31;101623.81;;;7.76
55038;BMP280;40937;53.594;10.034;2023-11-21T06:35:58;101620.91;;;7.71
55038;BMP280;40937;53.594;10.034;2023-11-21T06:38:25;101626.22;;;7.78
55038;BMP280;40937;53.594;10.034;2023-11-21T06:40:55;101628.66;;;7.79
55038;BMP280;40937;53.594;10.034;2023-11-21T06:43:25;101629.50;;;7.80
55038;BMP280;40937;53.594;10.034;2023-11-21T06:45:52;101637.19;;;7.82
55038;BMP280;40937;53.594;10.034;2023-11-21T06:48:20;101642.63;;;7.80
55038;BMP280;40937;53.594;10.034;2023-11-21T06:50:47;101651.50;;;7.79
55038;BMP280;40937;53.594;10.034;2023-11-21T06:53:14;101650.31;;;7.82
55038;BMP280;40937;53.594;10.034;2023-11-21T06:55:41;101652.94;;;7.82
55038;BMP280;40937;53.594;10.034;2023-11-21T06:58:08;101655.56;;;7.82
55038;BMP280;40937;53.594;10.034;2023-11-21T07:00:37;101656.63;;;7.87
55038;BMP280;40937;53.594;10.034;2023-11-21T07:03:04;101665.72;;;7.85
55038;BMP280;40937;53.594;10.034;2023-11-21T07:05:31;101663.88;;;7.85
55038;BMP280;40937;53.594;10.034;2023-11-21T07:07:58;101669.47;;;7.75
55038;BMP280;40937;53.594;10.034;2023-11-21T07:10:30;101670.97;;;7.85
55038;BMP280;40937;53.594;10.034;2023-11-21T07:12:57;101684.94;;;7.92
55038;BMP280;40937;53.594;10.034;2023-11-21T07:15:24;101691.63;;;7.88
55038;BMP280;40937;53.594;10.034;2023-11-21T07:17:53;101692.22;;;7.90
55038;BMP280;40937;53.594;10.034;2023-11-21T07:20:21;101694.03;;;7.89
55038;BMP280;40937;53.594;10.034;2023-11-21T07:22:48;101704.75;;;7.88
55038;BMP280;40937;53.594;10.034;2023-11-21T07:25:15;101710.84;;;7.95
55038;BMP280;40937;53.594;10.034;2023-11-21T07:27:42;101720.50;;;7.88
55038;BMP280;40937;53.594;10.034;2023-11-21T07:30:11;101718.88;;;7.87
55038;BMP280;40937;53.594;10.034;2023-11-21T07:32:39;101725.47;;;7.83
55038;BMP280;40937;53.594;10.034;2023-11-21T07:35:08;101729.75;;;7.84
55038;BMP280;40937;53.594;10.034;2023-11-21T07:37:36;101738.25;;;7.86
55038;BMP280;40937;53.594;10.034;2023-11-21T07:40:04;101732.38;;;7.84
55038;BMP280;40937;53.594;10.034;2023-11-21T07:42:31;101742.94;;;7.90
55038;BMP280;40937;53.594;10.034;2023-11-21T07:44:59;101744.75;;;7.90
55038;BMP280;40937;53.594;10.034;2023-11-21T07:47:26;101747.50;;;7.82
55038;BMP280;40937;53.594;10.034;2023-11-21T07:49:53;101748.13;;;7.84
55038;BMP280;40937;53.594;10.034;2023-11-21T07:52:23;101749.47;;;7.94
55038;BMP280;40937;53.594;10.034;2023-11-21T07:54:50;101739.50;;;7.90
55038;BMP280;40937;53.594;10.034;2023-11-21T07:57:17;101744.34;;;7.86
55038;BMP280;40937;53.594;10.034;2023-11-21T07:59:45;101749.66;;;7.93
55038;BMP280;40937;53.594;10.034;2023-11-21T08:02:12;101745.63;;;7.97
55038;BMP280;40937;53.594;10.034;2023-11-21T08:04:40;101751.72;;;7.97
55038;BMP280;40937;53.594;10.034;2023-11-21T08:07:07;101756.75;;;7.99
55038;BMP280;40937;53.594;10.034;2023-11-21T08:09:37;101761.84;;;8.00
55038;BMP280;40937;53.594;10.034;2023-11-21T08:12:04;101766.72;;;8.04
55038;BMP280;40937;53.594;10.034;2023-11-21T08:14:32;101763.63;;;8.00
55038;BMP280;40937;53.594;10.034;2023-11-21T08:16:59;101770.53;;;8.01
55038;BMP280;40937;53.594;10.034;2023-11-21T08:19:26;101771.72;;;7.98
55038;BMP280;40937;53.594;10.034;2023-11-21T08:21:53;101780.66;;;8.04
55038;BMP280;40937;53.594;10.034;2023-11-21T08:24:21;101785.66;;;7.99
55038;BMP280;40937;53.594;10.034;2023-11-21T08:26:49;101790.94;;;7.99
55038;BMP280;40937;53.594;10.034;2023-11-21T08:29:18;101791.19;;;8.04
55038;BMP280;40937;53.594;10.034;2023-11-21T08:31:45;101788.56;;;8.04
55038;BMP280;40937;53.594;10.034;2023-11-21T08:34:13;101790.56;;;8.02
55038;BMP280;40937;53.594;10.034;2023-11-21T08:36:42;101797.78;;;8.00
55038;BMP280;40937;53.594;10.034;2023-11-21T08:39:09;101797.44;;;8.03
55038;BMP280;40937;53.594;10.034;2023-11-21T08:41:37;101803.53;;;8.04
55038;BMP280;40937;53.594;10.034;2023-11-21T08:44:06;101818.44;;;8.03
55038;BMP280;40937;53.594;10.034;2023-11-21T08:46:33;101815.19;;;8.01
55038;BMP280;40937;53.594;10.034;2023-11-21T08:49:03;101818.41;;;7.96
55038;BMP280;40937;53.594;10.034;2023-11-21T08:51:30;101826.09;;;7.98
55038;BMP280;40937;53.594;10.034;2023-11-21T08:53:57;101826.09;;;7.98
55038;BMP280;40937;53.594;10.034;2023-11-21T08:56:27;101830.97;;;8.01
55038;BMP280;40937;53.594;10.034;2023-11-21T08:58:54;101845.63;;;8.10
55038;BMP280;40937;53.594;10.034;2023-11-21T09:01:22;101858.63;;;7.97
55038;BMP280;40937;53.594;10.034;2023-11-21T09:03:50;101849.13;;;7.96
55038;BMP280;40937;53.594;10.034;2023-11-21T09:06:18;101857.00;;;7.96
55038;BMP280;40937;53.594;10.034;2023-11-21T09:08:45;101861.59;;;7.94
55038;BMP280;40937;53.594;10.034;2023-11-21T09:11:13;101864.34;;;7.86
55038;BMP280;40937;53.594;10.034;2023-11-21T09:13:40;101859.34;;;7.91
55038;BMP280;40937;53.594;10.034;2023-11-21T09:16:08;101866.69;;;7.95
55038;BMP280;40937;53.594;10.034;2023-11-21T09:18:36;101870.94;;;7.96
55038;BMP280;40937;53.594;10.034;2023-11-21T09:21:04;101879.25;;;8.00
55038;BMP280;40937;53.594;10.034;2023-11-21T09:23:31;101883.09;;;7.97
55038;BMP280;40937;53.594;10.034;2023-11-21T09:25:59;101886.72;;;7.96
55038;BMP280;40937;53.594;10.034;2023-11-21T09:28:26;101891.16;;;7.96
55038;BMP280;40937;53.594;10.034;2023-11-21T09:30:54;101891.88;;;7.90
55038;BMP280;40937;53.594;10.034;2023-11-21T09:33:21;101897.31;;;7.88
55038;BMP280;40937;53.594;10.034;2023-11-21T09:35:52;101891.88;;;7.90
55038;BMP280;40937;53.594;10.034;2023-11-21T09:38:20;101892.38;;;8.00
55038;BMP280;40937;53.594;10.034;2023-11-21T09:40:47;101900.03;;;7.95
55038;BMP280;40937;53.594;10.034;2023-11-21T09:43:16;101907.91;;;7.95
55038;BMP280;40937;53.594;10.034;2023-11-21T09:45:46;101915.00;;;7.94
55038;BMP280;40937;53.594;10.034;2023-11-21T09:48:14;101912.53;;;7.93
55038;BMP280;40937;53.594;10.034;2023-11-21T09:50:43;101922.69;;;7.96
55038;BMP280;40937;53.594;10.034;2023-11-21T09:53:15;101924.66;;;7.94
55038;BMP280;40937;53.594;10.034;2023-11-21T09:55:46;101925.97;;;7.98
55038;BMP280;40937;53.594;10.034;2023-11-21T09:58:14;101922.41;;;8.06
55038;BMP280;40937;53.594;10.034;2023-11-21T10:00:43;101930.03;;;8.00
55038;BMP280;40937;53.594;10.034;2023-11-21T10:03:10;101936.47;;;7.98
55038;BMP280;40937;53.594;10.034;2023-11-21T10:05:39;101939.09;;;7.98
55038;BMP280;40937;53.594;10.034;2023-11-21T10:08:08;101941.09;;;7.96
55038;BMP280;40937;53.594;10.034;2023-11-21T10:10:38;101942.72;;;7.97
55038;BMP280;40937;53.594;10.034;2023-11-21T10:13:09;101938.19;;;8.06
55038;BMP280;40937;53.594;10.034;2023-11-21T10:15:38;101951.50;;;8.04
55038;BMP280;40937;53.594;10.034;2023-11-21T10:18:10;101940.16;;;8.04
55038;BMP280;40937;53.594;10.034;2023-11-21T10:20:41;101946.28;;;8.11
55038;BMP280;40937;53.594;10.034;2023-11-21T10:23:09;101944.31;;;8.13
55038;BMP280;40937;53.594;10.034;2023-11-21T10:25:40;101947.13;;;8.11
55038;BMP280;40937;53.594;10.034;2023-11-21T10:28:09;101945.50;;;8.10
55038;BMP280;40937;53.594;10.034;2023-11-21T10:30:38;101954.00;;;8.12
55038;BMP280;40937;53.594;10.034;2023-11-21T10:33:07;101956.56;;;8.21
55038;BMP280;40937;53.594;10.034;2023-11-21T10:35:44;101963.19;;;8.16
55038;BMP280;40937;53.594;10.034;2023-11-21T10:38:14;101970.50;;;8.06
55038;BMP280;40937;53.594;10.034;2023-11-21T10:40:43;101963.00;;;8.03
55038;BMP280;40937;53.594;10.034;2023-11-21T10:43:13;101968.44;;;8.02
55038;BMP280;40937;53.594;10.034;2023-11-21T10:45:41;101976.47;;;8.00
55038;BMP280;40937;53.594;10.034;2023-11-21T10:48:10;101973.63;;;7.95
55038;BMP280;40937;53.594;10.034;2023-11-21T10:50:37;101976.47;;;8.00
55038;BMP280;40937;53.594;10.034;2023-11-21T10:53:05;101974.41;;;7.95
55038;BMP280;40937;53.594;10.034;2023-11-21T10:55:33;101980.13;;;7.99
55038;BMP280;40937;53.594;10.034;2023-11-21T10:58:03;101982.13;;;7.97
55038;BMP280;40937;53.594;10.034;2023-11-21T11:00:32;101980.13;;;7.99
55038;BMP280;40937;53.594;10.034;2023-11-21T11:03:00;101979.78;;;8.02
55038;BMP280;40937;53.594;10.034;2023-11-21T11:05:29;101976.88;;;7.97
55038;BMP280;40937;53.594;10.034;2023-11-21T11:08:00;101989.94;;;8.05
55038;BMP280;40937;53.594;10.034;2023-11-21T11:10:30;101989.03;;;7.98
55038;BMP280;40937;53.594;10.034;2023-11-21T11:12:58;101991.66;;;7.98
55038;BMP280;40937;53.594;10.034;2023-11-21T11:15:28;102002.06;;;8.06
55038;BMP280;40937;53.594;10.034;2023-11-21T11:17:55;101996.63;;;8.08
55038;BMP280;40937;53.594;10.034;2023-11-21T11:20:27;101993.91;;;8.01
55038;BMP280;40937;53.594;10.034;2023-11-21T11:23:12;101995.19;;;8.05
55038;BMP280;40937;53.594;10.034;2023-11-21T11:25:52;101997.50;;;8.00
55038;BMP280;40937;53.594;10.034;2023-11-21T11:28:26;102002.06;;;8.06
55038;BMP280;40937;53.594;10.034;2023-11-21T11:31:04;101996.00;;;8.06
55038;BMP280;40937;53.594;10.034;2023-11-21T11:33:38;101994.44;;;8.11
55038;BMP280;40937;53.594;10.034;2023-11-21T11:36:11;101993.81;;;8.09
55038;BMP280;40937;53.594;10.034;2023-11-21T11:38:45;102004.59;;;8.14
55038;BMP280;40937;53.594;10.034;2023-11-21T11:41:12;102003.31;;;8.10
55038;BMP280;40937;53.594;10.034;2023-11-21T11:43:39;102008.22;;;8.13
55038;BMP280;40937;53.594;10.034;2023-11-21T11:46:11;102003.94;;;8.12
55038;BMP280;40937;53.594;10.034;2023-11-21T11:48:40;102001.69;;;8.09
55038;BMP280;40937;53.594;10.034;2023-11-21T11:51:10;102006.22;;;8.15
55038;BMP280;40937;53.594;10.034;2023-11-21T11:53:41;102007.50;;;8.05
55038;BMP280;40937;53.594;10.034;2023-11-21T11:56:28;102004.50;;;8.08
55038;BMP280;40937;53.594;10.034;2023-11-21T11:58:57;102012.22;;;8.09
55038;BMP280;40937;53.594;10.034;2023-11-21T12:01:26;102005.69;;;8.05
55038;BMP280;40937;53.594;10.034;2023-11-21T12:04:28;102013.59;;;8.05
55038;BMP280;40937;53.594;10.034;2023-11-21T12:07:01;102010.47;;;8.02
55038;BMP280;40937;53.594;10.034;2023-11-21T12:09:30;102018.50;;;8.08
55038;BMP280;40937;53.594;10.034;2023-11-21T12:11:59;102018.91;;;7.97
55038;BMP280;40937;53.594;10.034;2023-11-21T12:14:27;102030.44;;;7.96
55038;BMP280;40937;53.594;10.034;2023-11-21T12:16:56;102036.31;;;7.98
55038;BMP280;40937;53.594;10.034;2023-11-21T12:19:23;102035.94;;;8.01
55038;BMP280;40937;53.594;10.034;2023-11-21T12:21:51;102049.63;;;7.96
55038;BMP280;40937;53.594;10.034;2023-11-21T12:24:18;102049.72;;;7.88
55038;BMP280;40937;53.594;10.034;2023-11-21T12:26:46;102052.72;;;7.85
55038;BMP280;40937;53.594;10.034;2023-11-21T12:29:13;102063.75;;;7.80
55038;BMP280;40937;53.594;10.034;2023-11-21T12:31:42;102054.72;;;7.83
55038;BMP280;40937;53.594;10.034;2023-11-21T12:34:11;102061.13;;;7.80
55038;BMP280;40937;53.594;10.034;2023-11-21T12:36:39;102072.16;;;7.91
55038;BMP280;40937;53.594;10.034;2023-11-21T12:39:06;102071.00;;;7.93
55038;BMP280;40937;53.594;10.034;2023-11-21T12:41:35;102069.28;;;7.86
55038;BMP280;40937;53.594;10.034;2023-11-21T12:44:02;102076.88;;;7.80
55038;BMP280;40937;53.594;10.034;2023-11-21T12:46:30;102080.88;;;7.76
55038;BMP280;40937;53.594;10.034;2023-11-21T12:49:00;102077.66;;;7.66
55038;BMP280;40937;53.594;10.034;2023-11-21T12:51:28;102084.25;;;7.62
55038;BMP280;40937;53.594;10.034;2023-11-21T12:53:56;102085.84;;;7.71
55038;BMP280;40937;53.594;10.034;2023-11-21T12:56:24;102096.03;;;7.66
55038;BMP280;40937;53.594;10.034;2023-11-21T12:58:54;102100.38;;;7.59
55038;BMP280;40937;53.594;10.034;2023-11-21T13:01:25;102104.22;;;7.48
55038;BMP280;40937;53.594;10.034;2023-11-21T13:03:56;102102.06;;;7.52
55038;BMP280;40937;53.594;10.034;2023-11-21T13:06:24;102105.19;;;7.47
55038;BMP280;40937;53.594;10.034;2023-11-21T13:08:54;102105.53;;;7.44
55038;BMP280;40937;53.594;10.034;2023-11-21T13:11:23;102107.03;;;7.47
55038;BMP280;40937;53.594;10.034;2023-11-21T13:13:52;102119.50;;;7.45
55038;BMP280;40937;53.594;10.034;2023-11-21T13:16:20;102108.31;;;7.51
55038;BMP280;40937;53.594;10.034;2023-11-21T13:18:47;102118.66;;;7.44
55038;BMP280;40937;53.594;10.034;2023-11-21T13:21:15;102116.03;;;7.52
55038;BMP280;40937;53.594;10.034;2023-11-21T13:23:43;102111.13;;;7.49
55038;BMP280;40937;53.594;10.034;2023-11-21T13:26:13;102117.06;;;7.43
55038;BMP280;40937;53.594;10.034;2023-11-21T13:28:41;102131.97;;;7.42
55038;BMP280;40937;53.594;10.034;2023-11-21T13:31:12;102129.00;;;7.46
55038;BMP280;40937;53.594;10.034;2023-11-21T13:33:53;102132.13;;;7.49
55038;BMP280;40937;53.594;10.034;2023-11-21T13:36:25;102139.84;;;7.51
55038;BMP280;40937;53.594;10.034;2023-11-21T13:38:56;102141.44;;;7.52
55038;BMP280;40937;53.594;10.034;2023-11-21T13:41:26;102142.13;;;7.46
55038;BMP280;40937;53.594;10.034;2023-11-21T13:43:56;102145.72;;;7.53
55038;BMP280;40937;53.594;10.034;2023-11-21T13:46:32;102147.19;;;7.55
55038;BMP280;40937;53.594;10.034;2023-11-21T13:49:03;102147.19;;;7.55
55038;BMP280;40937;53.594;10.034;2023-11-21T13:51:35;102153.78;;;7.51
55038;BMP280;40937;53.594;10.034;2023-11-21T13:54:07;102162.16;;;7.47
55038;BMP280;40937;53.594;10.034;2023-11-21T13:56:37;102162.63;;;7.50
55038;BMP280;40937;53.594;10.034;2023-11-21T13:59:05;102169.41;;;7.45
55038;BMP280;40937;53.594;10.034;2023-11-21T14:01:42;102181.59;;;7.37
55038;BMP280;40937;53.594;10.034;2023-11-21T14:04:21;102180.53;;;7.47